Time;durP1;ratioP1;P1;durP2;ratioP2;P2;SDS_P1;SDS_P2;PMS_P1;PMS_P2;Temp;Humidity;BMP_temperature;BMP_pressure;BME280_temperature;BME280_humidity;BME280_pressure;Samples;Min_cycle;Max_cycle;Signal;HPM_P1;HPM_P2
2023/12/10 00:01:16;;;;;;;18.90;10.50;;;;;;;;;;6075751;23;20050;-81
2023/12/10 00:03:42;;;;;;;19.58;10.70;;;;;;;;;;6053593;23;20029;-80
2023/12/10 00:06:08;;;;;;;17.10;10.25;;;;;;;;;;6061499;23;20040;-81
2023/12/10 00:08:33;;;;;;;18.73;10.55;;;;;;;;;;6035086;23;20021;-81
2023/12/10 00:11:04;;;;;;;19.55;10.50;;;;;;;;;;6052072;23;20077;-81
2023/12/10 00:13:29;;;;;;;18.35;10.82;;;;;;;;;;6051754;23;20123;-81
2023/12/10 00:15:54;;;;;;;20.98;10.75;;;;;;;;;;6061490;23;20453;-81
2023/12/10 00:18:20;;;;;;;17.63;10.15;;;;;;;;;;6062338;23;20050;-80
2023/12/10 00:20:45;;;;;;;17.63;10.77;;;;;;;;;;6084829;23;20010;-81
2023/12/10 00:23:11;;;;;;;20.35;11.00;;;;;;;;;;6036891;23;20056;-81
2023/12/10 00:25:42;;;;;;;20.98;11.40;;;;;;;;;;6086093;23;20081;-80
2023/12/10 00:28:11;;;;;;;19.38;11.05;;;;;;;;;;6041075;23;20061;-80
2023/12/10 00:30:37;;;;;;;17.60;10.63;;;;;;;;;;6072701;23;20017;-80
2023/12/10 00:33:03;;;;;;;18.73;10.90;;;;;;;;;;6085919;23;20065;-81
2023/12/10 00:35:29;;;;;;;17.23;10.75;;;;;;;;;;6062278;23;20037;-81
2023/12/10 00:37:57;;;;;;;18.83;11.00;;;;;;;;;;6075144;23;20011;-80
2023/12/10 00:40:22;;;;;;;18.85;10.98;;;;;;;;;;6062783;23;20018;-81
2023/12/10 00:42:59;;;;;;;22.25;10.88;;;;;;;;;;6061052;23;20021;-80
2023/12/10 00:45:24;;;;;;;18.70;10.80;;;;;;;;;;6085963;23;20032;-81
2023/12/10 00:48:12;;;;;;;20.10;11.35;;;;;;;;;;6063919;23;20085;-81
2023/12/10 00:50:38;;;;;;;18.05;10.52;;;;;;;;;;6058711;23;20042;-80
2023/12/10 00:53:03;;;;;;;17.05;10.15;;;;;;;;;;6056107;23;20033;-80
2023/12/10 00:55:32;;;;;;;18.00;10.90;;;;;;;;;;6062874;23;20034;-81
2023/12/10 00:57:57;;;;;;;19.80;11.05;;;;;;;;;;6079396;23;20018;-81
2023/12/10 01:00:23;;;;;;;19.30;11.55;;;;;;;;;;6047411;23;20014;-81
2023/12/10 01:02:49;;;;;;;17.70;10.63;;;;;;;;;;6061162;23;20175;-81
2023/12/10 01:05:15;;;;;;;18.35;11.43;;;;;;;;;;6075337;23;20030;-81
2023/12/10 01:07:40;;;;;;;19.23;10.80;;;;;;;;;;6052785;23;20022;-82
2023/12/10 01:10:07;;;;;;;20.60;11.25;;;;;;;;;;6064399;23;20101;-81
2023/12/10 01:12:36;;;;;;;21.35;11.57;;;;;;;;;;6086803;23;20018;-81
2023/12/10 01:15:05;;;;;;;18.42;10.77;;;;;;;;;;6065105;23;20025;-81
2023/12/10 01:17:33;;;;;;;19.67;11.48;;;;;;;;;;6051750;23;20014;-81
2023/12/10 01:20:00;;;;;;;20.13;10.88;;;;;;;;;;6087807;23;20045;-81
2023/12/10 01:22:25;;;;;;;20.55;11.60;;;;;;;;;;6063412;23;20022;-81
2023/12/10 01:24:52;;;;;;;18.13;11.07;;;;;;;;;;6063979;23;20054;-81
2023/12/10 01:27:18;;;;;;;19.48;11.15;;;;;;;;;;6078648;23;20101;-81
2023/12/10 01:29:52;;;;;;;18.63;10.52;;;;;;;;;;6064472;23;20037;-80
2023/12/10 01:32:18;;;;;;;19.88;10.80;;;;;;;;;;6070307;23;20018;-80
2023/12/10 01:34:43;;;;;;;21.33;11.80;;;;;;;;;;6080593;23;20471;-81
2023/12/10 01:37:09;;;;;;;18.85;11.50;;;;;;;;;;6063714;23;20015;-80
2023/12/10 01:39:34;;;;;;;21.13;11.00;;;;;;;;;;6063938;23;20050;-80
2023/12/10 01:42:03;;;;;;;20.67;10.95;;;;;;;;;;6062675;23;20019;-80
2023/12/10 01:44:30;;;;;;;17.40;10.38;;;;;;;;;;6063786;23;20048;-81
2023/12/10 01:46:56;;;;;;;21.58;11.20;;;;;;;;;;6062748;23;20014;-81
2023/12/10 01:49:23;;;;;;;21.20;11.43;;;;;;;;;;6042446;23;20132;-81
2023/12/10 01:51:49;;;;;;;18.80;11.00;;;;;;;;;;6062536;23;20026;-80
2023/12/10 01:54:23;;;;;;;18.67;10.65;;;;;;;;;;6055721;23;20021;-81
2023/12/10 01:56:49;;;;;;;18.40;10.85;;;;;;;;;;6055684;23;20022;-80
2023/12/10 01:59:19;;;;;;;16.80;10.15;;;;;;;;;;6064195;23;20396;-80
2023/12/10 02:01:47;;;;;;;17.55;10.70;;;;;;;;;;6072895;23;20102;-80
2023/12/10 02:04:15;;;;;;;18.00;10.27;;;;;;;;;;6063672;23;20029;-81
2023/12/10 02:06:46;;;;;;;18.02;10.50;;;;;;;;;;6061048;23;20055;-80
2023/12/10 02:09:15;;;;;;;17.15;10.13;;;;;;;;;;6075616;23;20122;-80
2023/12/10 02:11:41;;;;;;;16.65;10.05;;;;;;;;;;6063005;23;20073;-80
2023/12/10 02:14:06;;;;;;;16.35;9.55;;;;;;;;;;6064187;23;20018;-80
2023/12/10 02:16:32;;;;;;;17.30;10.32;;;;;;;;;;6062515;23;20018;-80
2023/12/10 02:18:57;;;;;;;15.40;9.10;;;;;;;;;;6063633;23;20389;-80
2023/12/10 02:21:24;;;;;;;17.70;10.45;;;;;;;;;;6053176;23;20026;-80
2023/12/10 02:24:01;;;;;;;15.52;9.35;;;;;;;;;;6063579;23;20018;-82
2023/12/10 02:26:27;;;;;;;16.60;10.10;;;;;;;;;;6085401;23;20022;-80
2023/12/10 02:28:53;;;;;;;18.02;9.73;;;;;;;;;;6063411;23;20341;-81
2023/12/10 02:31:24;;;;;;;18.05;9.80;;;;;;;;;;6062167;23;20073;-80
2023/12/10 02:33:49;;;;;;;15.73;9.52;;;;;;;;;;6055733;23;20117;-81
2023/12/10 02:36:17;;;;;;;15.10;8.77;;;;;;;;;;6086504;23;20457;-80
2023/12/10 02:38:44;;;;;;;16.50;9.60;;;;;;;;;;6054325;23;20105;-80
2023/12/10 02:41:10;;;;;;;16.37;9.63;;;;;;;;;;6087231;23;20054;-81
2023/12/10 02:43:35;;;;;;;17.45;10.13;;;;;;;;;;6062611;23;20254;-80
2023/12/10 02:46:01;;;;;;;14.88;9.32;;;;;;;;;;6048202;23;20023;-81
2023/12/10 02:48:30;;;;;;;15.77;9.35;;;;;;;;;;6076859;23;20018;-80
2023/12/10 02:51:03;;;;;;;15.57;9.40;;;;;;;;;;6072322;23;20022;-80
2023/12/10 02:53:29;;;;;;;15.35;9.70;;;;;;;;;;6087722;23;20539;-81
2023/12/10 02:55:57;;;;;;;16.05;9.35;;;;;;;;;;6088179;23;20030;-81
2023/12/10 02:58:22;;;;;;;18.00;10.23;;;;;;;;;;6063849;23;20026;-81
2023/12/10 03:00:48;;;;;;;15.40;9.45;;;;;;;;;;6061655;23;20010;-81
2023/12/10 03:03:14;;;;;;;15.05;8.95;;;;;;;;;;6087205;23;20137;-81
2023/12/10 03:05:39;;;;;;;17.92;10.20;;;;;;;;;;6062163;23;20014;-81
2023/12/10 03:08:05;;;;;;;18.42;9.57;;;;;;;;;;6054760;23;20433;-81
2023/12/10 03:10:30;;;;;;;17.23;10.90;;;;;;;;;;6061177;23;20022;-81
2023/12/10 03:12:55;;;;;;;16.85;10.52;;;;;;;;;;6049593;23;20018;-81
2023/12/10 03:15:21;;;;;;;16.95;10.48;;;;;;;;;;6062444;23;20380;-81
2023/12/10 03:17:46;;;;;;;16.65;10.07;;;;;;;;;;6061338;23;20460;-81
2023/12/10 03:20:12;;;;;;;17.10;10.73;;;;;;;;;;6076060;23;20014;-81
2023/12/10 03:22:41;;;;;;;17.25;10.23;;;;;;;;;;6062763;23;20453;-82
2023/12/10 03:25:07;;;;;;;17.17;10.63;;;;;;;;;;6062960;23;20041;-81
2023/12/10 03:27:32;;;;;;;17.20;10.43;;;;;;;;;;6049474;23;20066;-81
2023/12/10 03:29:58;;;;;;;17.15;10.65;;;;;;;;;;6061204;23;20342;-81
2023/12/10 03:32:23;;;;;;;17.10;10.25;;;;;;;;;;6061088;23;20018;-82
2023/12/10 03:34:49;;;;;;;18.65;10.45;;;;;;;;;;6063114;23;20015;-81
2023/12/10 03:37:15;;;;;;;17.33;10.23;;;;;;;;;;6032939;23;20026;-81
2023/12/10 03:39:40;;;;;;;16.83;10.60;;;;;;;;;;6064025;23;20079;-82
2023/12/10 03:42:05;;;;;;;18.42;11.05;;;;;;;;;;6076050;23;20018;-81
2023/12/10 03:44:32;;;;;;;17.92;10.52;;;;;;;;;;6086971;23;20040;-81
2023/12/10 03:47:01;;;;;;;18.63;11.03;;;;;;;;;;6040857;23;20018;-81
2023/12/10 03:49:28;;;;;;;17.45;11.10;;;;;;;;;;6054304;23;20017;-81
2023/12/10 03:51:59;;;;;;;21.45;11.70;;;;;;;;;;6060690;23;20025;-82
2023/12/10 03:54:24;;;;;;;18.90;11.60;;;;;;;;;;6063205;23;20030;-81
2023/12/10 03:56:50;;;;;;;18.27;11.20;;;;;;;;;;6061400;23;20010;-81
2023/12/10 03:59:15;;;;;;;17.35;11.25;;;;;;;;;;6087118;23;20018;-81
2023/12/10 04:01:44;;;;;;;19.15;11.18;;;;;;;;;;6061536;23;20563;-81
2023/12/10 04:04:11;;;;;;;20.65;11.82;;;;;;;;;;6063536;23;20356;-81
2023/12/10 04:06:40;;;;;;;19.50;11.07;;;;;;;;;;6056477;23;20029;-81
2023/12/10 04:09:09;;;;;;;20.83;11.20;;;;;;;;;;6062837;23;20394;-81
2023/12/10 04:11:35;;;;;;;19.33;11.20;;;;;;;;;;6051284;23;20014;-81
2023/12/10 04:14:01;;;;;;;17.55;10.65;;;;;;;;;;6062761;23;20014;-81
2023/12/10 04:16:27;;;;;;;18.10;11.05;;;;;;;;;;6073253;23;20221;-81
2023/12/10 04:19:05;;;;;;;19.80;11.45;;;;;;;;;;6062414;23;20014;-81
2023/12/10 04:21:31;;;;;;;18.85;11.75;;;;;;;;;;6049176;23;20018;-80
2023/12/10 04:23:56;;;;;;;20.60;11.80;;;;;;;;;;6086910;23;20025;-81
2023/12/10 04:26:45;;;;;;;17.83;10.38;;;;;;;;;;6076980;23;20026;-81
2023/12/10 04:29:10;;;;;;;18.58;10.40;;;;;;;;;;6086350;23;20015;-81
2023/12/10 04:31:46;;;;;;;;;;;;;;;;;;;;;
2023/12/10 04:34:12;;;;;;;17.90;10.63;;;;;;;;;;6073505;23;20468;-80
2023/12/10 04:36:37;;;;;;;17.85;11.30;;;;;;;;;;6040164;23;20045;-81
2023/12/10 04:39:03;;;;;;;18.52;11.25;;;;;;;;;;6052616;23;20015;-81
2023/12/10 04:41:28;;;;;;;17.05;10.90;;;;;;;;;;6049753;23;20018;-81
2023/12/10 04:43:54;;;;;;;18.80;11.27;;;;;;;;;;6033937;23;20105;-81
2023/12/10 04:46:28;;;;;;;19.80;11.27;;;;;;;;;;6038849;23;20030;-80
2023/12/10 04:48:54;;;;;;;19.17;11.45;;;;;;;;;;6063200;23;20014;-81
2023/12/10 04:51:25;;;;;;;18.15;11.32;;;;;;;;;;6036047;23;20023;-81
2023/12/10 04:53:51;;;;;;;20.38;11.60;;;;;;;;;;6052589;23;20015;-81
2023/12/10 04:56:22;;;;;;;20.02;11.45;;;;;;;;;;6076646;23;20550;-81
2023/12/10 04:58:47;;;;;;;19.90;11.13;;;;;;;;;;6061769;23;20081;-81
2023/12/10 05:01:13;;;;;;;19.08;11.02;;;;;;;;;;6059817;23;20460;-81
2023/12/10 05:03:38;;;;;;;18.80;11.05;;;;;;;;;;6039198;23;20049;-81
2023/12/10 05:06:04;;;;;;;20.45;10.93;;;;;;;;;;6039379;23;20528;-81
2023/12/10 05:08:39;;;;;;;20.17;11.68;;;;;;;;;;6062629;23;20030;-81
2023/12/10 05:11:05;;;;;;;19.38;11.15;;;;;;;;;;6085541;23;20021;-82
2023/12/10 05:13:31;;;;;;;17.48;11.20;;;;;;;;;;6061776;23;20022;-80
2023/12/10 05:15:57;;;;;;;20.30;11.25;;;;;;;;;;6059206;23;20014;-82
2023/12/10 05:18:29;;;;;;;18.80;11.57;;;;;;;;;;6062971;23;20025;-81
2023/12/10 05:20:54;;;;;;;17.70;11.00;;;;;;;;;;6053116;23;20356;-82
2023/12/10 05:23:20;;;;;;;20.20;10.85;;;;;;;;;;6049119;23;20034;-83
2023/12/10 05:25:45;;;;;;;18.67;10.60;;;;;;;;;;6086017;23;20019;-81
2023/12/10 05:28:11;;;;;;;20.67;11.30;;;;;;;;;;6029144;23;20062;-82
2023/12/10 05:30:37;;;;;;;19.40;10.93;;;;;;;;;;6059060;23;20014;-82
2023/12/10 05:33:02;;;;;;;21.10;11.63;;;;;;;;;;6054687;23;20018;-81
2023/12/10 05:35:28;;;;;;;17.95;10.90;;;;;;;;;;6039660;23;20014;-81
2023/12/10 05:37:54;;;;;;;20.15;10.90;;;;;;;;;;6062964;23;20014;-81
2023/12/10 05:40:25;;;;;;;19.25;11.65;;;;;;;;;;6086272;23;20025;-81
2023/12/10 05:42:51;;;;;;;18.25;10.65;;;;;;;;;;6050524;23;20018;-82
2023/12/10 05:45:37;;;;;;;20.65;11.90;;;;;;;;;;6087733;23;20457;-82
2023/12/10 05:48:02;;;;;;;19.48;10.82;;;;;;;;;;5987473;23;20480;-81
2023/12/10 05:50:28;;;;;;;19.10;10.68;;;;;;;;;;6031376;23;20031;-82
2023/12/10 05:52:53;;;;;;;18.95;11.07;;;;;;;;;;6056283;23;20015;-82
2023/12/10 05:55:19;;;;;;;22.88;11.82;;;;;;;;;;6009741;23;20023;-81
2023/12/10 05:57:46;;;;;;;17.38;10.68;;;;;;;;;;6032704;23;20019;-82
2023/12/10 06:00:15;;;;;;;21.67;11.60;;;;;;;;;;6033966;23;20058;-81
2023/12/10 06:02:40;;;;;;;20.10;11.07;;;;;;;;;;6031678;23;20019;-81
2023/12/10 06:05:06;;;;;;;19.70;11.25;;;;;;;;;;6057028;23;20042;-82
2023/12/10 06:07:32;;;;;;;19.67;11.23;;;;;;;;;;6018903;23;20034;-81
2023/12/10 06:09:57;;;;;;;18.35;11.13;;;;;;;;;;6020091;23;20023;-81
2023/12/10 06:12:23;;;;;;;20.95;11.90;;;;;;;;;;6032952;23;20093;-81
2023/12/10 06:14:48;;;;;;;20.40;11.70;;;;;;;;;;6033094;23;20066;-81
2023/12/10 06:17:14;;;;;;;20.10;11.15;;;;;;;;;;6032247;23;20255;-80
2023/12/10 06:19:39;;;;;;;18.98;10.52;;;;;;;;;;6056897;23;20018;-81
2023/12/10 06:22:07;;;;;;;22.27;11.68;;;;;;;;;;5996238;23;20426;-81
2023/12/10 06:24:33;;;;;;;21.35;10.77;;;;;;;;;;6042600;23;20022;-82
2023/12/10 06:26:58;;;;;;;19.63;11.70;;;;;;;;;;6061677;23;20018;-82
2023/12/10 06:29:23;;;;;;;20.80;11.18;;;;;;;;;;6063954;23;20055;-82
2023/12/10 06:31:49;;;;;;;23.75;12.65;;;;;;;;;;6063249;23;20074;-81
2023/12/10 06:34:14;;;;;;;21.95;11.82;;;;;;;;;;6087822;23;20357;-82
2023/12/10 06:36:45;;;;;;;23.60;12.48;;;;;;;;;;6046250;23;20349;-82
2023/12/10 06:39:11;;;;;;;21.05;12.07;;;;;;;;;;6062998;23;20025;-82
2023/12/10 06:41:38;;;;;;;21.33;11.05;;;;;;;;;;6061904;23;20014;-82
2023/12/10 06:44:04;;;;;;;23.48;12.18;;;;;;;;;;6048212;23;20457;-81
2023/12/10 06:46:29;;;;;;;23.58;12.68;;;;;;;;;;6086010;23;20050;-81
2023/12/10 06:48:58;;;;;;;21.15;12.23;;;;;;;;;;6052068;23;20062;-81
2023/12/10 06:51:26;;;;;;;20.90;11.05;;;;;;;;;;6061447;23;20030;-82
2023/12/10 06:53:51;;;;;;;20.33;11.32;;;;;;;;;;6063503;23;20042;-81
2023/12/10 06:56:17;;;;;;;22.35;11.60;;;;;;;;;;6048275;23;20065;-82
2023/12/10 06:58:42;;;;;;;21.30;11.82;;;;;;;;;;6063226;23;20121;-82
2023/12/10 07:01:08;;;;;;;20.17;10.90;;;;;;;;;;6073786;23;20017;-82
2023/12/10 07:03:33;;;;;;;25.17;12.80;;;;;;;;;;6022170;23;20021;-81
2023/12/10 07:06:03;;;;;;;19.70;10.88;;;;;;;;;;6051565;23;20014;-81
2023/12/10 07:08:28;;;;;;;20.20;10.70;;;;;;;;;;6086472;23;20018;-82
2023/12/10 07:10:54;;;;;;;24.50;11.55;;;;;;;;;;6085990;23;20085;-82
2023/12/10 07:13:24;;;;;;;18.75;11.05;;;;;;;;;;6062784;23;20457;-82
2023/12/10 07:15:53;;;;;;;20.17;10.70;;;;;;;;;;6061545;23;20023;-82
2023/12/10 07:18:18;;;;;;;24.98;11.45;;;;;;;;;;6063418;23;20037;-82
2023/12/10 07:20:44;;;;;;;24.52;11.70;;;;;;;;;;6052810;23;20018;-81
2023/12/10 07:23:09;;;;;;;23.40;11.38;;;;;;;;;;6063153;23;20461;-82
2023/12/10 07:25:37;;;;;;;21.20;10.35;;;;;;;;;;6049347;23;20021;-82
2023/12/10 07:28:03;;;;;;;21.45;10.50;;;;;;;;;;6062658;23;20536;-82
2023/12/10 07:30:29;;;;;;;22.08;11.25;;;;;;;;;;6064547;23;20042;-81
2023/12/10 07:32:57;;;;;;;21.20;11.80;;;;;;;;;;6052084;23;20021;-81
2023/12/10 07:35:22;;;;;;;21.45;10.90;;;;;;;;;;6053025;23;20364;-80
2023/12/10 07:37:57;;;;;;;25.83;11.52;;;;;;;;;;6086441;23;20022;-84
2023/12/10 07:40:22;;;;;;;22.23;10.70;;;;;;;;;;6062405;23;20022;-84
2023/12/10 07:43:01;;;;;;;23.52;10.82;;;;;;;;;;6092298;23;20014;-83
2023/12/10 07:45:26;;;;;;;25.88;11.45;;;;;;;;;;6054894;23;20059;-85
2023/12/10 07:48:03;;;;;;;26.42;11.48;;;;;;;;;;6062698;23;20089;-80
2023/12/10 07:50:28;;;;;;;25.25;10.98;;;;;;;;;;6048417;23;20033;-81
2023/12/10 07:53:14;;;;;;;28.08;11.68;;;;;;;;;;6062409;23;20014;-81
2023/12/10 07:55:39;;;;;;;23.95;11.32;;;;;;;;;;6085073;23;20815;-81
2023/12/10 07:58:05;;;;;;;22.92;10.55;;;;;;;;;;6052701;23;20149;-81
2023/12/10 08:00:31;;;;;;;22.15;11.15;;;;;;;;;;6050600;23;20149;-82
2023/12/10 08:02:56;;;;;;;21.77;10.15;;;;;;;;;;6050973;23;20026;-80
2023/12/10 08:05:24;;;;;;;24.48;10.05;;;;;;;;;;6051195;23;20018;-81
2023/12/10 08:08:02;;;;;;;22.98;10.10;;;;;;;;;;6035245;23;20463;-80
2023/12/10 08:10:28;;;;;;;23.45;9.45;;;;;;;;;;6035433;23;20323;-80
2023/12/10 08:12:54;;;;;;;18.48;9.27;;;;;;;;;;6082320;23;20073;-81
2023/12/10 08:15:43;;;;;;;20.80;8.80;;;;;;;;;;6084843;23;20014;-80
2023/12/10 08:18:08;;;;;;;20.42;8.52;;;;;;;;;;6051318;23;20011;-81
2023/12/10 08:20:34;;;;;;;19.58;8.43;;;;;;;;;;6047774;23;20022;-81
2023/12/10 08:23:01;;;;;;;20.58;8.52;;;;;;;;;;6078018;23;20369;-81
2023/12/10 08:25:27;;;;;;;15.80;7.22;;;;;;;;;;6048395;23;20022;-80
2023/12/10 08:27:52;;;;;;;24.15;7.30;;;;;;;;;;6062624;23;20086;-80
2023/12/10 08:30:18;;;;;;;18.13;7.53;;;;;;;;;;6086296;23;20014;-80
2023/12/10 08:32:43;;;;;;;17.90;6.88;;;;;;;;;;6075113;23;20017;-81
2023/12/10 08:35:08;;;;;;;20.85;6.38;;;;;;;;;;6062572;23;20282;-81
2023/12/10 08:37:34;;;;;;;23.60;6.60;;;;;;;;;;6090123;23;20085;-80
2023/12/10 08:40:04;;;;;;;16.77;6.35;;;;;;;;;;6048783;23;20022;-81
2023/12/10 08:42:30;;;;;;;19.60;6.15;;;;;;;;;;6051377;23;20335;-80
2023/12/10 08:44:56;;;;;;;15.65;5.75;;;;;;;;;;6048928;23;20038;-80
2023/12/10 08:47:21;;;;;;;21.98;5.95;;;;;;;;;;6085273;23;20029;-81
2023/12/10 08:49:47;;;;;;;15.10;5.32;;;;;;;;;;6062935;23;20125;-80
2023/12/10 08:52:12;;;;;;;18.60;5.18;;;;;;;;;;6077293;23;20026;-81
2023/12/10 08:54:40;;;;;;;15.15;5.38;;;;;;;;;;6038795;23;20345;-80
2023/12/10 08:57:05;;;;;;;14.15;5.47;;;;;;;;;;6060877;23;20018;-80
2023/12/10 08:59:31;;;;;;;24.10;5.50;;;;;;;;;;6038359;23;20018;-80
2023/12/10 09:01:56;;;;;;;20.48;5.30;;;;;;;;;;6076797;23;20049;-80
2023/12/10 09:04:24;;;;;;;13.07;5.10;;;;;;;;;;6049472;23;20062;-80
2023/12/10 09:06:50;;;;;;;16.60;5.30;;;;;;;;;;6042483;23;20220;-80
2023/12/10 09:09:15;;;;;;;22.35;5.07;;;;;;;;;;6087270;23;20030;-80
2023/12/10 09:11:41;;;;;;;22.42;4.55;;;;;;;;;;6055025;23;20021;-80
2023/12/10 09:14:13;;;;;;;21.50;4.28;;;;;;;;;;6087442;23;20101;-80
2023/12/10 09:16:44;;;;;;;17.88;4.78;;;;;;;;;;6087066;23;20022;-80
2023/12/10 09:19:10;;;;;;;16.67;4.65;;;;;;;;;;6063904;23;20389;-80
2023/12/10 09:21:36;;;;;;;17.48;4.47;;;;;;;;;;6086505;23;20025;-80
2023/12/10 09:24:01;;;;;;;18.88;4.35;;;;;;;;;;6054475;23;20479;-80
2023/12/10 09:26:27;;;;;;;16.17;4.32;;;;;;;;;;6063077;23;20026;-80
2023/12/10 09:28:55;;;;;;;15.85;4.43;;;;;;;;;;6064170;23;20025;-80
2023/12/10 09:31:21;;;;;;;19.55;4.53;;;;;;;;;;6063110;23;20022;-80
2023/12/10 09:33:50;;;;;;;25.38;4.78;;;;;;;;;;6064860;23;20357;-80
2023/12/10 09:36:16;;;;;;;21.67;3.80;;;;;;;;;;6054482;23;20420;-80
2023/12/10 09:38:42;;;;;;;18.15;3.90;;;;;;;;;;6064580;23;20022;-80
2023/12/10 09:41:07;;;;;;;17.55;4.30;;;;;;;;;;6063315;23;20065;-80
2023/12/10 09:43:33;;;;;;;16.20;3.97;;;;;;;;;;6064955;23;20517;-80
2023/12/10 09:46:00;;;;;;;15.43;3.65;;;;;;;;;;6062840;23;20018;-80
2023/12/10 09:48:26;;;;;;;22.10;4.15;;;;;;;;;;6064370;23;20022;-80
2023/12/10 09:50:53;;;;;;;16.60;3.30;;;;;;;;;;6086336;23;20089;-80
2023/12/10 09:53:21;;;;;;;11.30;3.20;;;;;;;;;;6064375;23;20010;-81
2023/12/10 09:55:46;;;;;;;18.60;3.65;;;;;;;;;;6064227;23;20674;-81
2023/12/10 09:58:12;;;;;;;15.30;3.42;;;;;;;;;;6035063;23;20078;-81
2023/12/10 10:00:37;;;;;;;24.60;4.38;;;;;;;;;;6035325;23;20011;-81
2023/12/10 10:03:04;;;;;;;19.25;3.70;;;;;;;;;;6061735;23;20026;-81
2023/12/10 10:05:29;;;;;;;18.48;4.07;;;;;;;;;;6063560;23;20026;-81
2023/12/10 10:07:58;;;;;;;18.48;3.50;;;;;;;;;;6087117;23;20018;-81
2023/12/10 10:10:26;;;;;;;18.23;3.90;;;;;;;;;;6051850;23;20014;-81
2023/12/10 10:12:54;;;;;;;18.60;3.72;;;;;;;;;;6089264;23;20021;-81
2023/12/10 10:15:27;;;;;;;;;;;;;;;;;;6064390;23;20023;-81
2023/12/10 10:17:53;;;;;;;17.95;3.40;;;;;;;;;;6085254;23;19916;-81
2023/12/10 10:20:19;;;;;;;17.02;3.88;;;;;;;;;;6062735;23;20029;-81
2023/12/10 10:22:46;;;;;;;18.95;3.60;;;;;;;;;;6054114;23;20449;-80
2023/12/10 10:25:12;;;;;;;19.10;3.30;;;;;;;;;;6074182;23;20010;-81
2023/12/10 10:27:40;;;;;;;23.38;4.22;;;;;;;;;;6053640;23;20021;-81
2023/12/10 10:30:06;;;;;;;21.42;3.83;;;;;;;;;;6062368;23;20048;-81
2023/12/10 10:32:32;;;;;;;17.05;3.50;;;;;;;;;;6061925;23;20022;-81
2023/12/10 10:35:01;;;;;;;25.92;4.10;;;;;;;;;;6054581;23;20075;-81
2023/12/10 10:37:27;;;;;;;16.30;3.42;;;;;;;;;;6062333;23;20022;-81
2023/12/10 10:39:53;;;;;;;15.70;3.70;;;;;;;;;;6063348;23;20014;-81
2023/12/10 10:42:18;;;;;;;21.02;3.70;;;;;;;;;;6062717;23;20077;-83
2023/12/10 10:44:44;;;;;;;18.20;3.53;;;;;;;;;;6087838;23;20018;-81
2023/12/10 10:47:09;;;;;;;17.02;3.05;;;;;;;;;;6063240;23;20045;-81
2023/12/10 10:49:37;;;;;;;20.98;3.88;;;;;;;;;;6064080;23;20014;-81
2023/12/10 10:52:08;;;;;;;20.50;3.80;;;;;;;;;;6061824;23;20026;-80
2023/12/10 10:54:34;;;;;;;20.63;3.70;;;;;;;;;;6064182;23;20356;-81
2023/12/10 10:57:04;;;;;;;15.90;3.40;;;;;;;;;;6049363;23;20110;-81
2023/12/10 10:59:31;;;;;;;17.50;3.17;;;;;;;;;;6062247;23;20049;-81
2023/12/10 11:02:08;;;;;;;16.60;3.35;;;;;;;;;;6062087;23;20402;-80
2023/12/10 11:04:35;;;;;;;18.00;3.25;;;;;;;;;;6051642;23;20018;-81
2023/12/10 11:07:02;;;;;;;18.83;3.30;;;;;;;;;;6085413;23;20504;-84
2023/12/10 11:09:30;;;;;;;16.98;3.60;;;;;;;;;;6065836;23;20014;-85
2023/12/10 11:11:56;;;;;;;22.58;3.90;;;;;;;;;;6062375;23;20377;-86
2023/12/10 11:44:33;;;;;;;12.32;3.20;;;;;;;;;;5847576;24;20441;-88
2023/12/10 11:47:05;;;;;;;18.58;3.10;;;;;;;;;;5796708;24;20071;-87
2023/12/10 11:49:39;;;;;;;18.75;3.25;;;;;;;;;;5838410;24;20017;-87
2023/12/10 11:52:49;;;;;;;12.60;2.55;;;;;;;;;;5831428;24;20547;-86
2023/12/10 11:59:00;;;;;;;16.90;2.80;;;;;;;;;;5864966;24;20028;-87
2023/12/10 12:12:22;;;;;;;17.67;2.80;;;;;;;;;;5866541;24;20017;-86
2023/12/10 12:18:22;;;;;;;21.83;3.13;;;;;;;;;;5844442;24;19915;-85
2023/12/10 12:21:07;;;;;;;17.90;2.95;;;;;;;;;;5849125;24;20096;-84
2023/12/10 12:23:39;;;;;;;10.95;2.97;;;;;;;;;;5859050;24;20727;-85
2023/12/10 12:26:15;;;;;;;13.25;2.60;;;;;;;;;;5834429;24;20409;-86
2023/12/10 12:28:53;;;;;;;13.35;3.42;;;;;;;;;;5877151;24;20037;-86
2023/12/10 12:31:20;;;;;;;;;;;;;;;;;;5862377;24;20465;-86
2023/12/10 12:34:46;;;;;;;13.38;2.65;;;;;;;;;;5908693;24;19911;-85
2023/12/10 12:37:22;;;;;;;;;;;;;;;;;;;;;
2023/12/10 12:43:10;;;;;;;14.73;2.53;;;;;;;;;;5933250;24;20507;-85
2023/12/10 12:46:20;;;;;;;;;;;;;;;;;;;;;
2023/12/10 12:49:15;;;;;;;;;;;;;;;;;;;;;
2023/12/10 12:52:29;;;;;;;16.60;2.90;;;;;;;;;;5888585;24;20453;-85
2023/12/10 12:55:26;;;;;;;16.55;2.70;;;;;;;;;;5826427;24;20563;-86
2023/12/10 12:58:38;;;;;;;13.85;2.92;;;;;;;;;;5770598;24;20027;-86
2023/12/10 13:19:05;;;;;;;12.50;2.75;;;;;;;;;;5728174;24;20411;-88
2023/12/10 13:31:34;;;;;;;9.68;1.65;;;;;;;;;;5840803;24;20025;-87
2023/12/10 13:34:00;;;;;;;13.45;2.33;;;;;;;;;;5899691;23;20346;-87
2023/12/10 13:36:34;;;;;;;11.55;2.17;;;;;;;;;;5954104;23;20512;-84
2023/12/10 13:39:00;;;;;;;8.10;1.73;;;;;;;;;;5974304;23;20042;-86
2023/12/10 13:41:26;;;;;;;13.15;2.15;;;;;;;;;;5986817;23;20013;-86
2023/12/10 13:43:55;;;;;;;7.82;1.98;;;;;;;;;;6120727;23;20021;-88
2023/12/10 13:46:33;;;;;;;10.07;2.17;;;;;;;;;;6043160;23;20155;-86
2023/12/10 13:48:58;;;;;;;7.53;1.77;;;;;;;;;;6053656;23;20022;-86
2023/12/10 13:52:05;;;;;;;12.13;2.13;;;;;;;;;;6056161;23;20101;-85
2023/12/10 13:54:33;;;;;;;9.27;2.00;;;;;;;;;;6063464;23;20065;-86
2023/12/10 13:57:34;;;;;;;10.43;1.80;;;;;;;;;;6036348;23;20504;-86
2023/12/10 14:00:00;;;;;;;9.23;2.30;;;;;;;;;;6159902;23;20487;-85
2023/12/10 14:06:13;;;;;;;9.40;2.17;;;;;;;;;;6099569;23;20157;-85
2023/12/10 14:08:44;;;;;;;7.25;1.80;;;;;;;;;;6043618;23;20025;-86
2023/12/10 14:11:10;;;;;;;7.20;1.90;;;;;;;;;;5955414;23;20023;-85
2023/12/10 14:13:35;;;;;;;10.07;2.00;;;;;;;;;;6105156;23;20088;-86
2023/12/10 14:16:26;;;;;;;7.43;1.70;;;;;;;;;;6095197;23;20040;-85
2023/12/10 14:21:45;;;;;;;6.55;1.90;;;;;;;;;;6095204;23;20520;-86
2023/12/10 14:24:20;;;;;;;9.65;1.73;;;;;;;;;;6119502;23;20116;-86
2023/12/10 14:26:45;;;;;;;7.07;2.00;;;;;;;;;;6134590;23;20013;-86
2023/12/10 14:29:11;;;;;;;9.50;2.20;;;;;;;;;;6114797;23;20017;-87
2023/12/10 14:31:52;;;;;;;8.73;1.88;;;;;;;;;;6061307;23;20020;-87
2023/12/10 14:34:22;;;;;;;8.52;2.20;;;;;;;;;;6135988;23;20024;-88
2023/12/10 14:36:47;;;;;;;8.35;2.05;;;;;;;;;;6119130;23;20333;-87
2023/12/10 14:39:13;;;;;;;4.43;1.77;;;;;;;;;;6150263;23;20029;-86
2023/12/10 14:41:41;;;;;;;6.40;2.10;;;;;;;;;;6107673;23;20045;-87
2023/12/10 14:44:06;;;;;;;7.18;2.00;;;;;;;;;;6137243;23;20032;-87
2023/12/10 14:47:01;;;;;;;7.40;1.90;;;;;;;;;;6110657;23;20487;-87
2023/12/10 14:49:30;;;;;;;7.63;2.05;;;;;;;;;;6087600;23;20017;-88
2023/12/10 14:52:04;;;;;;;5.55;2.03;;;;;;;;;;6062169;23;20013;-88
2023/12/10 14:54:32;;;;;;;6.35;2.00;;;;;;;;;;6087992;23;20026;-88
2023/12/10 14:57:14;;;;;;;7.47;2.08;;;;;;;;;;6031113;23;20028;-87
2023/12/10 14:59:55;;;;;;;5.53;2.05;;;;;;;;;;6109905;23;20028;-87
2023/12/10 15:02:43;;;;;;;9.45;2.00;;;;;;;;;;6062573;23;20022;-87
2023/12/10 15:05:26;;;;;;;8.93;2.10;;;;;;;;;;6070671;23;20320;-87
2023/12/10 15:07:51;;;;;;;7.88;2.05;;;;;;;;;;6078583;23;20467;-87
2023/12/10 15:10:17;;;;;;;6.53;2.30;;;;;;;;;;6093868;23;20018;-87
2023/12/10 15:12:45;;;;;;;7.20;2.13;;;;;;;;;;6096113;23;20087;-86
2023/12/10 15:15:13;;;;;;;9.18;2.38;;;;;;;;;;6096038;23;20118;-87
2023/12/10 15:17:47;;;;;;;7.13;2.22;;;;;;;;;;6127641;23;20036;-89
2023/12/10 15:20:27;;;;;;;9.45;2.45;;;;;;;;;;6090166;23;20018;-90
2023/12/10 15:22:52;;;;;;;7.78;2.03;;;;;;;;;;6072117;23;20350;-89
2023/12/10 15:25:23;;;;;;;12.07;2.40;;;;;;;;;;6085145;23;20088;-89
2023/12/10 15:28:20;;;;;;;8.00;2.53;;;;;;;;;;6089557;23;20347;-90
2023/12/10 15:30:46;;;;;;;7.78;2.67;;;;;;;;;;6069943;23;20053;-90
2023/12/10 15:33:42;;;;;;;8.45;2.63;;;;;;;;;;6107409;23;20017;-89
2023/12/10 15:36:12;;;;;;;8.25;2.53;;;;;;;;;;6100251;23;20028;-89
2023/12/10 15:42:12;;;;;;;10.68;2.70;;;;;;;;;;6066358;23;20018;-89
2023/12/10 15:44:38;;;;;;;9.38;3.05;;;;;;;;;;6036680;23;20034;-89
2023/12/10 15:50:12;;;;;;;8.68;2.80;;;;;;;;;;6048828;23;20732;-89
2023/12/10 15:52:40;;;;;;;9.70;2.50;;;;;;;;;;6086720;23;20009;-89
2023/12/10 15:55:06;;;;;;;9.23;2.70;;;;;;;;;;6048853;23;20477;-82
2023/12/10 15:57:33;;;;;;;8.73;2.67;;;;;;;;;;6059896;23;20026;-87
2023/12/10 16:00:00;;;;;;;12.27;3.27;;;;;;;;;;6059320;23;20375;-86
2023/12/10 16:02:26;;;;;;;10.00;3.07;;;;;;;;;;6044027;23;20018;-86
2023/12/10 16:04:52;;;;;;;7.63;2.80;;;;;;;;;;6054638;23;20018;-86
2023/12/10 16:07:18;;;;;;;7.97;2.85;;;;;;;;;;6060219;23;20460;-87
2023/12/10 16:09:44;;;;;;;8.32;2.90;;;;;;;;;;6061761;23;20018;-86
2023/12/10 16:12:09;;;;;;;7.43;2.40;;;;;;;;;;6060625;23;20378;-87